sensor_id;sensor_type;location;lat;lon;timestamp;P1;durP1;ratioP1;P2;durP2;ratioP2
10007;SDS011;5043;41.766;26.204;2022-09-30T00:01:27;7.43;;;2.10;;
10007;SDS011;5043;41.766;26.204;2022-09-30T00:03:54;2.97;;;2.30;;
10007;SDS011;5043;41.766;26.204;2022-09-30T00:06:21;4.60;;;2.47;;
10007;SDS011;5043;41.766;26.204;2022-09-30T00:08:47;5.03;;;2.00;;
10007;SDS011;5043;41.766;26.204;2022-09-30T00:11:14;5.68;;;2.65;;
10007;SDS011;5043;41.766;26.204;2022-09-30T00:13:44;2.67;;;2.08;;
10007;SDS011;5043;41.766;26.204;2022-09-30T00:16:12;3.88;;;1.80;;
10007;SDS011;5043;41.766;26.204;2022-09-30T00:18:38;3.80;;;2.28;;
10007;SDS011;5043;41.766;26.204;2022-09-30T00:21:06;3.88;;;2.42;;
10007;SDS011;5043;41.766;26.204;2022-09-30T00:23:35;2.90;;;1.90;;
10007;SDS011;5043;41.766;26.204;2022-09-30T00:26:03;4.30;;;2.05;;
10007;SDS011;5043;41.766;26.204;2022-09-30T00:28:32;3.35;;;2.20;;
10007;SDS011;5043;41.766;26.204;2022-09-30T00:31:01;3.30;;;2.00;;
10007;SDS011;5043;41.766;26.204;2022-09-30T00:33:32;3.03;;;2.30;;
10007;SDS011;5043;41.766;26.204;2022-09-30T00:35:59;2.75;;;2.30;;
10007;SDS011;5043;41.766;26.204;2022-09-30T00:38:24;3.25;;;2.35;;
10007;SDS011;5043;41.766;26.204;2022-09-30T00:40:51;4.85;;;2.33;;
10007;SDS011;5043;41.766;26.204;2022-09-30T00:43:37;3.80;;;2.08;;
10007;SDS011;5043;41.766;26.204;2022-09-30T00:46:07;3.72;;;2.10;;
10007;SDS011;5043;41.766;26.204;2022-09-30T00:48:43;4.80;;;2.55;;
10007;SDS011;5043;41.766;26.204;2022-09-30T00:51:10;5.93;;;2.67;;
10007;SDS011;5043;41.766;26.204;2022-09-30T00:53:43;2.53;;;2.08;;
10007;SDS011;5043;41.766;26.204;2022-09-30T00:56:19;2.53;;;1.95;;
10007;SDS011;5043;41.766;26.204;2022-09-30T00:58:50;5.60;;;2.83;;
10007;SDS011;5043;41.766;26.204;2022-09-30T01:01:19;5.05;;;2.10;;
10007;SDS011;5043;41.766;26.204;2022-09-30T01:06:21;3.03;;;2.20;;
10007;SDS011;5043;41.766;26.204;2022-09-30T01:08:48;4.93;;;2.20;;
10007;SDS011;5043;41.766;26.204;2022-09-30T01:11:14;2.67;;;2.00;;
10007;SDS011;5043;41.766;26.204;2022-09-30T01:13:40;4.40;;;2.03;;
10007;SDS011;5043;41.766;26.204;2022-09-30T01:24:36;2.00;;;1.90;;
10007;SDS011;5043;41.766;26.204;2022-09-30T01:27:11;4.75;;;2.67;;
10007;SDS011;5043;41.766;26.204;2022-09-30T01:45:45;4.85;;;1.92;;
10007;SDS011;5043;41.766;26.204;2022-09-30T01:51:29;3.30;;;2.10;;
10007;SDS011;5043;41.766;26.204;2022-09-30T01:54:14;6.53;;;2.47;;
10007;SDS011;5043;41.766;26.204;2022-09-30T01:56:49;3.63;;;2.65;;
10007;SDS011;5043;41.766;26.204;2022-09-30T01:59:25;4.65;;;2.50;;
10007;SDS011;5043;41.766;26.204;2022-09-30T02:02:20;5.15;;;2.10;;
10007;SDS011;5043;41.766;26.204;2022-09-30T02:04:52;7.10;;;2.95;;
10007;SDS011;5043;41.766;26.204;2022-09-30T02:07:38;3.08;;;2.67;;
10007;SDS011;5043;41.766;26.204;2022-09-30T02:10:16;3.97;;;2.47;;
10007;SDS011;5043;41.766;26.204;2022-09-30T02:12:54;2.38;;;2.05;;
10007;SDS011;5043;41.766;26.204;2022-09-30T02:15:30;3.85;;;2.28;;
10007;SDS011;5043;41.766;26.204;2022-09-30T02:18:05;3.38;;;2.60;;
10007;SDS011;5043;41.766;26.204;2022-09-30T02:20:38;4.15;;;2.75;;
10007;SDS011;5043;41.766;26.204;2022-09-30T02:23:12;6.55;;;2.42;;
10007;SDS011;5043;41.766;26.204;2022-09-30T02:25:43;5.55;;;2.42;;
10007;SDS011;5043;41.766;26.204;2022-09-30T02:28:19;3.85;;;2.10;;
10007;SDS011;5043;41.766;26.204;2022-09-30T02:30:51;5.32;;;2.72;;
10007;SDS011;5043;41.766;26.204;2022-09-30T02:33:22;2.80;;;2.13;;
10007;SDS011;5043;41.766;26.204;2022-09-30T02:35:57;2.95;;;2.40;;
10007;SDS011;5043;41.766;26.204;2022-09-30T02:38:32;6.10;;;2.90;;
10007;SDS011;5043;41.766;26.204;2022-09-30T02:41:25;5.03;;;2.70;;
10007;SDS011;5043;41.766;26.204;2022-09-30T02:43:53;5.72;;;2.80;;
10007;SDS011;5043;41.766;26.204;2022-09-30T02:52:02;5.00;;;2.85;;
10007;SDS011;5043;41.766;26.204;2022-09-30T02:57:54;5.15;;;3.10;;
10007;SDS011;5043;41.766;26.204;2022-09-30T03:00:41;7.25;;;2.88;;
10007;SDS011;5043;41.766;26.204;2022-09-30T03:03:11;4.65;;;2.65;;
10007;SDS011;5043;41.766;26.204;2022-09-30T03:05:45;3.17;;;2.58;;
10007;SDS011;5043;41.766;26.204;2022-09-30T03:08:10;4.75;;;3.15;;
10007;SDS011;5043;41.766;26.204;2022-09-30T03:10:36;4.55;;;2.97;;
10007;SDS011;5043;41.766;26.204;2022-09-30T03:30:13;3.67;;;2.80;;
10007;SDS011;5043;41.766;26.204;2022-09-30T03:41:07;7.28;;;3.25;;
10007;SDS011;5043;41.766;26.204;2022-09-30T03:43:31;8.82;;;3.38;;
10007;SDS011;5043;41.766;26.204;2022-09-30T03:46:00;7.10;;;3.60;;
10007;SDS011;5043;41.766;26.204;2022-09-30T03:48:30;6.43;;;3.50;;
10007;SDS011;5043;41.766;26.204;2022-09-30T03:50:58;6.00;;;3.30;;
10007;SDS011;5043;41.766;26.204;2022-09-30T03:53:24;10.55;;;4.20;;
10007;SDS011;5043;41.766;26.204;2022-09-30T03:55:51;14.07;;;4.28;;
10007;SDS011;5043;41.766;26.204;2022-09-30T03:58:18;7.90;;;3.95;;
10007;SDS011;5043;41.766;26.204;2022-09-30T04:00:50;6.20;;;3.53;;
10007;SDS011;5043;41.766;26.204;2022-09-30T04:03:19;7.28;;;3.75;;
10007;SDS011;5043;41.766;26.204;2022-09-30T04:05:46;10.43;;;4.90;;
10007;SDS011;5043;41.766;26.204;2022-09-30T04:08:12;9.00;;;3.95;;
10007;SDS011;5043;41.766;26.204;2022-09-30T04:10:39;6.78;;;3.97;;
10007;SDS011;5043;41.766;26.204;2022-09-30T04:13:05;8.82;;;5.05;;
10007;SDS011;5043;41.766;26.204;2022-09-30T04:15:31;7.55;;;4.88;;
10007;SDS011;5043;41.766;26.204;2022-09-30T04:17:57;10.57;;;5.78;;
10007;SDS011;5043;41.766;26.204;2022-09-30T04:20:23;10.18;;;5.43;;
10007;SDS011;5043;41.766;26.204;2022-09-30T04:22:48;9.10;;;5.82;;
10007;SDS011;5043;41.766;26.204;2022-09-30T04:25:14;11.30;;;5.45;;
10007;SDS011;5043;41.766;26.204;2022-09-30T04:27:39;8.55;;;5.03;;
10007;SDS011;5043;41.766;26.204;2022-09-30T04:30:05;10.95;;;5.45;;
10007;SDS011;5043;41.766;26.204;2022-09-30T04:32:30;11.10;;;4.78;;
10007;SDS011;5043;41.766;26.204;2022-09-30T04:34:56;10.43;;;4.35;;
10007;SDS011;5043;41.766;26.204;2022-09-30T04:37:21;8.32;;;4.53;;
10007;SDS011;5043;41.766;26.204;2022-09-30T04:39:48;9.57;;;4.75;;
10007;SDS011;5043;41.766;26.204;2022-09-30T04:42:13;13.90;;;5.18;;
10007;SDS011;5043;41.766;26.204;2022-09-30T04:44:40;13.50;;;5.85;;
10007;SDS011;5043;41.766;26.204;2022-09-30T04:47:05;9.48;;;5.28;;
10007;SDS011;5043;41.766;26.204;2022-09-30T04:49:31;15.98;;;5.50;;
10007;SDS011;5043;41.766;26.204;2022-09-30T04:51:56;17.42;;;6.15;;
10007;SDS011;5043;41.766;26.204;2022-09-30T04:54:21;17.17;;;6.65;;
10007;SDS011;5043;41.766;26.204;2022-09-30T04:56:48;19.52;;;7.78;;
10007;SDS011;5043;41.766;26.204;2022-09-30T04:59:13;16.20;;;7.40;;
10007;SDS011;5043;41.766;26.204;2022-09-30T05:01:39;16.38;;;8.38;;
10007;SDS011;5043;41.766;26.204;2022-09-30T05:04:06;25.63;;;10.60;;
10007;SDS011;5043;41.766;26.204;2022-09-30T05:06:32;25.52;;;9.48;;
10007;SDS011;5043;41.766;26.204;2022-09-30T05:08:57;27.60;;;11.35;;
10007;SDS011;5043;41.766;26.204;2022-09-30T05:11:23;31.67;;;12.15;;
10007;SDS011;5043;41.766;26.204;2022-09-30T05:13:49;48.80;;;15.27;;
10007;SDS011;5043;41.766;26.204;2022-09-30T05:16:15;38.22;;;12.98;;
10007;SDS011;5043;41.766;26.204;2022-09-30T05:18:41;40.10;;;14.05;;
10007;SDS011;5043;41.766;26.204;2022-09-30T05:21:09;41.15;;;14.75;;
10007;SDS011;5043;41.766;26.204;2022-09-30T05:23:38;46.05;;;14.10;;
10007;SDS011;5043;41.766;26.204;2022-09-30T05:26:03;31.48;;;13.63;;
10007;SDS011;5043;41.766;26.204;2022-09-30T05:28:29;46.85;;;14.88;;
10007;SDS011;5043;41.766;26.204;2022-09-30T05:30:58;43.53;;;14.82;;
10007;SDS011;5043;41.766;26.204;2022-09-30T05:33:27;43.70;;;15.18;;
10007;SDS011;5043;41.766;26.204;2022-09-30T05:35:53;39.55;;;14.82;;
10007;SDS011;5043;41.766;26.204;2022-09-30T05:38:19;38.60;;;16.17;;
10007;SDS011;5043;41.766;26.204;2022-09-30T05:40:44;37.95;;;14.85;;
10007;SDS011;5043;41.766;26.204;2022-09-30T05:43:10;40.45;;;14.82;;
10007;SDS011;5043;41.766;26.204;2022-09-30T05:45:35;46.17;;;14.68;;
10007;SDS011;5043;41.766;26.204;2022-09-30T05:48:02;35.47;;;13.98;;
10007;SDS011;5043;41.766;26.204;2022-09-30T05:50:28;36.80;;;13.73;;
10007;SDS011;5043;41.766;26.204;2022-09-30T05:52:53;34.88;;;13.93;;
10007;SDS011;5043;41.766;26.204;2022-09-30T05:55:19;37.25;;;15.13;;
10007;SDS011;5043;41.766;26.204;2022-09-30T05:57:47;36.92;;;15.25;;
10007;SDS011;5043;41.766;26.204;2022-09-30T06:00:13;36.45;;;15.45;;
10007;SDS011;5043;41.766;26.204;2022-09-30T06:02:39;44.83;;;17.98;;
10007;SDS011;5043;41.766;26.204;2022-09-30T06:05:06;48.10;;;17.65;;
10007;SDS011;5043;41.766;26.204;2022-09-30T06:07:35;46.58;;;19.63;;
10007;SDS011;5043;41.766;26.204;2022-09-30T06:10:02;50.63;;;19.75;;
10007;SDS011;5043;41.766;26.204;2022-09-30T06:12:35;40.20;;;15.65;;
10007;SDS011;5043;41.766;26.204;2022-09-30T06:15:05;39.00;;;15.45;;
10007;SDS011;5043;41.766;26.204;2022-09-30T06:17:31;36.50;;;14.93;;
10007;SDS011;5043;41.766;26.204;2022-09-30T06:19:57;29.33;;;12.45;;
10007;SDS011;5043;41.766;26.204;2022-09-30T06:22:22;26.75;;;12.32;;
10007;SDS011;5043;41.766;26.204;2022-09-30T06:24:48;25.60;;;11.88;;
10007;SDS011;5043;41.766;26.204;2022-09-30T06:27:13;28.52;;;11.77;;
10007;SDS011;5043;41.766;26.204;2022-09-30T06:29:38;29.13;;;11.52;;
10007;SDS011;5043;41.766;26.204;2022-09-30T06:32:04;26.10;;;10.80;;
10007;SDS011;5043;41.766;26.204;2022-09-30T06:34:31;24.88;;;11.40;;
10007;SDS011;5043;41.766;26.204;2022-09-30T06:36:57;21.90;;;11.82;;
10007;SDS011;5043;41.766;26.204;2022-09-30T06:39:22;20.35;;;10.63;;
10007;SDS011;5043;41.766;26.204;2022-09-30T06:41:48;21.13;;;9.95;;
10007;SDS011;5043;41.766;26.204;2022-09-30T06:44:13;20.75;;;8.55;;
10007;SDS011;5043;41.766;26.204;2022-09-30T06:46:39;15.80;;;7.60;;
10007;SDS011;5043;41.766;26.204;2022-09-30T06:49:05;17.98;;;7.78;;
10007;SDS011;5043;41.766;26.204;2022-09-30T06:51:31;18.25;;;8.45;;
10007;SDS011;5043;41.766;26.204;2022-09-30T06:53:58;18.23;;;8.70;;
10007;SDS011;5043;41.766;26.204;2022-09-30T06:56:24;16.83;;;9.05;;
10007;SDS011;5043;41.766;26.204;2022-09-30T06:58:51;21.58;;;10.30;;
10007;SDS011;5043;41.766;26.204;2022-09-30T07:01:17;21.45;;;10.93;;
10007;SDS011;5043;41.766;26.204;2022-09-30T07:03:45;23.80;;;10.15;;
10007;SDS011;5043;41.766;26.204;2022-09-30T07:06:12;20.85;;;10.95;;
10007;SDS011;5043;41.766;26.204;2022-09-30T07:08:38;17.65;;;8.63;;
10007;SDS011;5043;41.766;26.204;2022-09-30T07:11:06;17.75;;;9.05;;
10007;SDS011;5043;41.766;26.204;2022-09-30T07:13:38;20.15;;;9.27;;
10007;SDS011;5043;41.766;26.204;2022-09-30T07:16:13;20.85;;;8.93;;
10007;SDS011;5043;41.766;26.204;2022-09-30T07:18:41;15.98;;;8.00;;
10007;SDS011;5043;41.766;26.204;2022-09-30T07:21:07;24.60;;;7.82;;
10007;SDS011;5043;41.766;26.204;2022-09-30T07:23:33;16.80;;;7.20;;
10007;SDS011;5043;41.766;26.204;2022-09-30T07:26:00;16.98;;;9.07;;
10007;SDS011;5043;41.766;26.204;2022-09-30T07:28:32;19.08;;;6.63;;
10007;SDS011;5043;41.766;26.204;2022-09-30T07:31:00;12.85;;;6.00;;
10007;SDS011;5043;41.766;26.204;2022-09-30T07:33:30;10.50;;;4.93;;
10007;SDS011;5043;41.766;26.204;2022-09-30T07:35:57;19.08;;;5.78;;
10007;SDS011;5043;41.766;26.204;2022-09-30T07:38:25;10.90;;;5.30;;
10007;SDS011;5043;41.766;26.204;2022-09-30T07:40:56;9.27;;;4.75;;
10007;SDS011;5043;41.766;26.204;2022-09-30T07:43:29;8.88;;;4.45;;
10007;SDS011;5043;41.766;26.204;2022-09-30T07:46:25;9.07;;;4.43;;
10007;SDS011;5043;41.766;26.204;2022-09-30T07:48:54;12.60;;;5.53;;
10007;SDS011;5043;41.766;26.204;2022-09-30T07:53:49;9.23;;;3.97;;
10007;SDS011;5043;41.766;26.204;2022-09-30T07:56:17;8.20;;;3.55;;
10007;SDS011;5043;41.766;26.204;2022-09-30T07:58:43;7.30;;;3.60;;
10007;SDS011;5043;41.766;26.204;2022-09-30T08:01:09;14.93;;;5.32;;
10007;SDS011;5043;41.766;26.204;2022-09-30T08:03:37;10.13;;;3.90;;
10007;SDS011;5043;41.766;26.204;2022-09-30T08:06:07;9.48;;;4.57;;
10007;SDS011;5043;41.766;26.204;2022-09-30T08:08:35;7.57;;;4.40;;
10007;SDS011;5043;41.766;26.204;2022-09-30T08:11:02;7.18;;;3.47;;
10007;SDS011;5043;41.766;26.204;2022-09-30T08:13:29;11.15;;;3.63;;
10007;SDS011;5043;41.766;26.204;2022-09-30T08:15:54;9.52;;;3.72;;
10007;SDS011;5043;41.766;26.204;2022-09-30T08:18:20;10.63;;;4.47;;
10007;SDS011;5043;41.766;26.204;2022-09-30T08:20:45;7.80;;;3.90;;
10007;SDS011;5043;41.766;26.204;2022-09-30T08:23:11;11.32;;;4.18;;
10007;SDS011;5043;41.766;26.204;2022-09-30T08:25:36;7.28;;;4.07;;
10007;SDS011;5043;41.766;26.204;2022-09-30T08:28:02;6.63;;;3.67;;
10007;SDS011;5043;41.766;26.204;2022-09-30T08:30:28;13.27;;;3.80;;
10007;SDS011;5043;41.766;26.204;2022-09-30T08:32:53;7.68;;;4.10;;
10007;SDS011;5043;41.766;26.204;2022-09-30T08:35:19;5.22;;;3.38;;
10007;SDS011;5043;41.766;26.204;2022-09-30T08:37:44;4.88;;;3.45;;
10007;SDS011;5043;41.766;26.204;2022-09-30T08:51:56;6.10;;;3.60;;
10007;SDS011;5043;41.766;26.204;2022-09-30T08:54:24;7.43;;;2.47;;
10007;SDS011;5043;41.766;26.204;2022-09-30T08:56:54;6.28;;;2.90;;
10007;SDS011;5043;41.766;26.204;2022-09-30T09:01:52;6.57;;;3.13;;
10007;SDS011;5043;41.766;26.204;2022-09-30T09:04:21;7.13;;;3.10;;
10007;SDS011;5043;41.766;26.204;2022-09-30T09:12:09;7.30;;;3.13;;
10007;SDS011;5043;41.766;26.204;2022-09-30T09:19:46;6.25;;;2.92;;
10007;SDS011;5043;41.766;26.204;2022-09-30T09:22:34;3.53;;;2.35;;
10007;SDS011;5043;41.766;26.204;2022-09-30T09:25:03;5.72;;;3.30;;
10007;SDS011;5043;41.766;26.204;2022-09-30T09:27:32;5.47;;;2.72;;
10007;SDS011;5043;41.766;26.204;2022-09-30T09:30:21;4.05;;;2.50;;
10007;SDS011;5043;41.766;26.204;2022-09-30T09:32:54;8.30;;;2.78;;
10007;SDS011;5043;41.766;26.204;2022-09-30T09:41:25;5.45;;;2.42;;
10007;SDS011;5043;41.766;26.204;2022-09-30T09:44:23;10.73;;;3.00;;
10007;SDS011;5043;41.766;26.204;2022-09-30T09:47:01;3.95;;;2.33;;
10007;SDS011;5043;41.766;26.204;2022-09-30T09:49:33;5.88;;;2.40;;
10007;SDS011;5043;41.766;26.204;2022-09-30T09:54:58;4.38;;;2.55;;
10007;SDS011;5043;41.766;26.204;2022-09-30T09:57:25;6.45;;;2.40;;
10007;SDS011;5043;41.766;26.204;2022-09-30T10:03:05;3.50;;;2.13;;
10007;SDS011;5043;41.766;26.204;2022-09-30T10:05:32;4.90;;;2.55;;
10007;SDS011;5043;41.766;26.204;2022-09-30T10:08:09;5.75;;;2.88;;
10007;SDS011;5043;41.766;26.204;2022-09-30T10:10:49;4.20;;;2.38;;
10007;SDS011;5043;41.766;26.204;2022-09-30T10:13:26;5.07;;;2.45;;
10007;SDS011;5043;41.766;26.204;2022-09-30T10:15:55;2.97;;;2.20;;
10007;SDS011;5043;41.766;26.204;2022-09-30T10:18:26;4.85;;;2.30;;
10007;SDS011;5043;41.766;26.204;2022-09-30T10:20:59;4.82;;;2.53;;
10007;SDS011;5043;41.766;26.204;2022-09-30T10:23:39;3.97;;;1.90;;
10007;SDS011;5043;41.766;26.204;2022-09-30T10:28:49;5.70;;;2.03;;
10007;SDS011;5043;41.766;26.204;2022-09-30T10:36:56;3.50;;;2.08;;
10007;SDS011;5043;41.766;26.204;2022-09-30T10:39:26;10.07;;;2.47;;
10007;SDS011;5043;41.766;26.204;2022-09-30T10:42:19;6.50;;;2.20;;
10007;SDS011;5043;41.766;26.204;2022-09-30T10:47:30;5.85;;;1.80;;
10007;SDS011;5043;41.766;26.204;2022-09-30T10:49:59;7.63;;;2.17;;
10007;SDS011;5043;41.766;26.204;2022-09-30T10:52:37;6.45;;;2.38;;
10007;SDS011;5043;41.766;26.204;2022-09-30T10:57:49;5.35;;;2.03;;
10007;SDS011;5043;41.766;26.204;2022-09-30T11:00:21;4.85;;;1.90;;
10007;SDS011;5043;41.766;26.204;2022-09-30T11:05:40;2.60;;;1.63;;
10007;SDS011;5043;41.766;26.204;2022-09-30T11:08:18;3.55;;;2.10;;
10007;SDS011;5043;41.766;26.204;2022-09-30T11:24:38;4.00;;;1.85;;
10007;SDS011;5043;41.766;26.204;2022-09-30T11:30:02;2.30;;;1.65;;
10007;SDS011;5043;41.766;26.204;2022-09-30T11:43:39;4.30;;;2.35;;
10007;SDS011;5043;41.766;26.204;2022-09-30T11:51:31;2.47;;;1.67;;
10007;SDS011;5043;41.766;26.204;2022-09-30T11:59:44;6.78;;;2.38;;
10007;SDS011;5043;41.766;26.204;2022-09-30T12:04:55;6.13;;;2.47;;
10007;SDS011;5043;41.766;26.204;2022-09-30T12:07:34;4.07;;;1.50;;
10007;SDS011;5043;41.766;26.204;2022-09-30T12:10:11;4.50;;;2.30;;
10007;SDS011;5043;41.766;26.204;2022-09-30T12:12:45;7.15;;;1.73;;
10007;SDS011;5043;41.766;26.204;2022-09-30T12:15:16;4.13;;;2.15;;
10007;SDS011;5043;41.766;26.204;2022-09-30T12:17:48;3.83;;;2.15;;
10007;SDS011;5043;41.766;26.204;2022-09-30T12:20:32;5.43;;;2.15;;
10007;SDS011;5043;41.766;26.204;2022-09-30T12:23:19;2.78;;;2.40;;
10007;SDS011;5043;41.766;26.204;2022-09-30T12:42:37;3.58;;;2.63;;
10007;SDS011;5043;41.766;26.204;2022-09-30T12:45:33;3.40;;;2.10;;
10007;SDS011;5043;41.766;26.204;2022-09-30T12:48:19;5.32;;;2.00;;
10007;SDS011;5043;41.766;26.204;2022-09-30T12:50:48;6.30;;;2.53;;
10007;SDS011;5043;41.766;26.204;2022-09-30T12:55:42;3.45;;;2.35;;
10007;SDS011;5043;41.766;26.204;2022-09-30T12:58:30;2.15;;;1.83;;
10007;SDS011;5043;41.766;26.204;2022-09-30T13:01:04;3.38;;;2.25;;
10007;SDS011;5043;41.766;26.204;2022-09-30T13:03:43;3.85;;;2.45;;
10007;SDS011;5043;41.766;26.204;2022-09-30T13:07:16;3.40;;;2.30;;
10007;SDS011;5043;41.766;26.204;2022-09-30T13:11:41;5.28;;;2.13;;
10007;SDS011;5043;41.766;26.204;2022-09-30T13:19:47;2.30;;;2.10;;
10007;SDS011;5043;41.766;26.204;2022-09-30T13:28:24;3.92;;;2.42;;
10007;SDS011;5043;41.766;26.204;2022-09-30T13:30:38;4.50;;;2.28;;
10007;SDS011;5043;41.766;26.204;2022-09-30T13:33:24;4.30;;;2.08;;
10007;SDS011;5043;41.766;26.204;2022-09-30T13:35:58;4.72;;;2.75;;
10007;SDS011;5043;41.766;26.204;2022-09-30T13:38:32;5.15;;;2.20;;
10007;SDS011;5043;41.766;26.204;2022-09-30T13:41:21;4.85;;;2.70;;
10007;SDS011;5043;41.766;26.204;2022-09-30T13:46:33;5.05;;;2.42;;
10007;SDS011;5043;41.766;26.204;2022-09-30T13:52:07;6.32;;;2.38;;
10007;SDS011;5043;41.766;26.204;2022-09-30T13:55:02;4.45;;;2.60;;
10007;SDS011;5043;41.766;26.204;2022-09-30T13:57:41;5.10;;;2.90;;
10007;SDS011;5043;41.766;26.204;2022-09-30T14:00:13;3.88;;;2.40;;
10007;SDS011;5043;41.766;26.204;2022-09-30T14:02:43;1.95;;;1.80;;
10007;SDS011;5043;41.766;26.204;2022-09-30T14:19:27;3.60;;;1.88;;
10007;SDS011;5043;41.766;26.204;2022-09-30T14:22:16;4.25;;;2.25;;
10007;SDS011;5043;41.766;26.204;2022-09-30T14:24:43;4.45;;;2.25;;
10007;SDS011;5043;41.766;26.204;2022-09-30T14:32:46;4.20;;;2.28;;
10007;SDS011;5043;41.766;26.204;2022-09-30T14:35:17;5.25;;;2.33;;
10007;SDS011;5043;41.766;26.204;2022-09-30T14:37:51;6.10;;;2.65;;
10007;SDS011;5043;41.766;26.204;2022-09-30T14:40:19;3.92;;;1.92;;
10007;SDS011;5043;41.766;26.204;2022-09-30T14:42:50;6.53;;;2.42;;
10007;SDS011;5043;41.766;26.204;2022-09-30T14:45:21;3.25;;;2.50;;
10007;SDS011;5043;41.766;26.204;2022-09-30T14:47:51;3.65;;;2.60;;
10007;SDS011;5043;41.766;26.204;2022-09-30T14:50:23;3.70;;;2.10;;
10007;SDS011;5043;41.766;26.204;2022-09-30T14:52:52;5.53;;;3.75;;
10007;SDS011;5043;41.766;26.204;2022-09-30T14:55:24;3.97;;;3.45;;
10007;SDS011;5043;41.766;26.204;2022-09-30T14:58:18;41.47;;;25.20;;
10007;SDS011;5043;41.766;26.204;2022-09-30T15:00:47;29.52;;;15.73;;
10007;SDS011;5043;41.766;26.204;2022-09-30T15:03:22;20.15;;;11.90;;
10007;SDS011;5043;41.766;26.204;2022-09-30T15:05:48;16.58;;;7.68;;
10007;SDS011;5043;41.766;26.204;2022-09-30T15:08:17;9.32;;;5.47;;
10007;SDS011;5043;41.766;26.204;2022-09-30T15:10:49;12.68;;;6.97;;
10007;SDS011;5043;41.766;26.204;2022-09-30T15:13:17;19.08;;;10.35;;
10007;SDS011;5043;41.766;26.204;2022-09-30T15:15:45;24.90;;;10.43;;
10007;SDS011;5043;41.766;26.204;2022-09-30T15:21:08;14.70;;;7.60;;
10007;SDS011;5043;41.766;26.204;2022-09-30T15:23:37;10.98;;;7.15;;
10007;SDS011;5043;41.766;26.204;2022-09-30T15:26:05;6.20;;;3.90;;
10007;SDS011;5043;41.766;26.204;2022-09-30T15:28:35;8.27;;;3.88;;
10007;SDS011;5043;41.766;26.204;2022-09-30T15:31:00;4.13;;;2.90;;
10007;SDS011;5043;41.766;26.204;2022-09-30T15:33:27;4.53;;;2.95;;
10007;SDS011;5043;41.766;26.204;2022-09-30T15:36:06;3.80;;;2.58;;
10007;SDS011;5043;41.766;26.204;2022-09-30T15:38:38;4.35;;;2.65;;
10007;SDS011;5043;41.766;26.204;2022-09-30T15:41:07;7.25;;;3.30;;
10007;SDS011;5043;41.766;26.204;2022-09-30T15:43:39;3.92;;;3.25;;
10007;SDS011;5043;41.766;26.204;2022-09-30T15:46:15;3.50;;;2.47;;
10007;SDS011;5043;41.766;26.204;2022-09-30T15:49:04;5.13;;;2.88;;
10007;SDS011;5043;41.766;26.204;2022-09-30T15:51:52;5.78;;;2.95;;
10007;SDS011;5043;41.766;26.204;2022-09-30T15:54:34;6.40;;;2.85;;
10007;SDS011;5043;41.766;26.204;2022-09-30T15:57:02;9.07;;;3.70;;
10007;SDS011;5043;41.766;26.204;2022-09-30T16:00:00;3.28;;;2.47;;
10007;SDS011;5043;41.766;26.204;2022-09-30T16:02:31;5.43;;;2.70;;
10007;SDS011;5043;41.766;26.204;2022-09-30T16:04:57;15.43;;;3.00;;
10007;SDS011;5043;41.766;26.204;2022-09-30T16:07:26;7.25;;;3.35;;
10007;SDS011;5043;41.766;26.204;2022-09-30T16:09:53;9.23;;;2.78;;
10007;SDS011;5043;41.766;26.204;2022-09-30T16:12:22;7.28;;;3.13;;
10007;SDS011;5043;41.766;26.204;2022-09-30T16:14:59;4.05;;;2.95;;
10007;SDS011;5043;41.766;26.204;2022-09-30T16:17:32;6.97;;;2.88;;
10007;SDS011;5043;41.766;26.204;2022-09-30T16:20:06;6.35;;;3.35;;
10007;SDS011;5043;41.766;26.204;2022-09-30T16:27:43;8.43;;;3.78;;
10007;SDS011;5043;41.766;26.204;2022-09-30T16:30:13;11.75;;;4.35;;
10007;SDS011;5043;41.766;26.204;2022-09-30T16:32:43;6.97;;;3.90;;
10007;SDS011;5043;41.766;26.204;2022-09-30T16:35:16;7.25;;;3.53;;
10007;SDS011;5043;41.766;26.204;2022-09-30T16:37:43;11.55;;;4.10;;
10007;SDS011;5043;41.766;26.204;2022-09-30T16:42:43;6.55;;;3.33;;
10007;SDS011;5043;41.766;26.204;2022-09-30T16:45:10;5.90;;;3.03;;
10007;SDS011;5043;41.766;26.204;2022-09-30T16:47:37;8.93;;;3.42;;
10007;SDS011;5043;41.766;26.204;2022-09-30T16:50:09;5.50;;;3.20;;
10007;SDS011;5043;41.766;26.204;2022-09-30T16:52:54;5.43;;;3.67;;
10007;SDS011;5043;41.766;26.204;2022-09-30T16:55:21;8.48;;;3.50;;
10007;SDS011;5043;41.766;26.204;2022-09-30T16:57:47;7.38;;;3.00;;
10007;SDS011;5043;41.766;26.204;2022-09-30T17:00:14;11.63;;;4.20;;
10007;SDS011;5043;41.766;26.204;2022-09-30T17:02:42;7.38;;;4.00;;
10007;SDS011;5043;41.766;26.204;2022-09-30T17:05:14;8.90;;;5.68;;
10007;SDS011;5043;41.766;26.204;2022-09-30T17:07:43;11.80;;;5.43;;
10007;SDS011;5043;41.766;26.204;2022-09-30T17:10:32;10.82;;;4.75;;
10007;SDS011;5043;41.766;26.204;2022-09-30T17:12:59;10.70;;;3.75;;
10007;SDS011;5043;41.766;26.204;2022-09-30T17:15:26;14.80;;;4.90;;
10007;SDS011;5043;41.766;26.204;2022-09-30T17:17:53;8.52;;;4.45;;
10007;SDS011;5043;41.766;26.204;2022-09-30T17:20:19;16.40;;;5.60;;
10007;SDS011;5043;41.766;26.204;2022-09-30T17:22:46;34.42;;;7.28;;
10007;SDS011;5043;41.766;26.204;2022-09-30T17:25:13;27.05;;;7.85;;
10007;SDS011;5043;41.766;26.204;2022-09-30T17:27:39;17.35;;;5.50;;
10007;SDS011;5043;41.766;26.204;2022-09-30T17:30:04;20.77;;;4.75;;
10007;SDS011;5043;41.766;26.204;2022-09-30T17:32:40;19.80;;;4.78;;
10007;SDS011;5043;41.766;26.204;2022-09-30T17:35:07;18.80;;;4.75;;
10007;SDS011;5043;41.766;26.204;2022-09-30T17:37:33;31.30;;;5.32;;
10007;SDS011;5043;41.766;26.204;2022-09-30T17:40:06;41.55;;;5.57;;
10007;SDS011;5043;41.766;26.204;2022-09-30T17:42:50;15.32;;;6.18;;
10007;SDS011;5043;41.766;26.204;2022-09-30T17:45:33;20.73;;;6.28;;
10007;SDS011;5043;41.766;26.204;2022-09-30T17:48:00;25.55;;;6.47;;
10007;SDS011;5043;41.766;26.204;2022-09-30T17:50:26;22.30;;;5.38;;
10007;SDS011;5043;41.766;26.204;2022-09-30T17:52:52;20.42;;;5.15;;
10007;SDS011;5043;41.766;26.204;2022-09-30T17:55:19;14.18;;;4.82;;
10007;SDS011;5043;41.766;26.204;2022-09-30T17:57:46;24.65;;;5.40;;
10007;SDS011;5043;41.766;26.204;2022-09-30T18:00:12;17.77;;;5.25;;
10007;SDS011;5043;41.766;26.204;2022-09-30T18:02:38;18.67;;;4.85;;
10007;SDS011;5043;41.766;26.204;2022-09-30T18:05:05;18.63;;;4.80;;
10007;SDS011;5043;41.766;26.204;2022-09-30T18:07:31;6.93;;;3.42;;
10007;SDS011;5043;41.766;26.204;2022-09-30T18:09:56;8.27;;;3.92;;
10007;SDS011;5043;41.766;26.204;2022-09-30T18:12:22;9.77;;;3.50;;
10007;SDS011;5043;41.766;26.204;2022-09-30T18:14:48;10.18;;;3.05;;
10007;SDS011;5043;41.766;26.204;2022-09-30T18:17:15;10.13;;;4.28;;
10007;SDS011;5043;41.766;26.204;2022-09-30T18:19:40;10.07;;;3.25;;
10007;SDS011;5043;41.766;26.204;2022-09-30T18:22:06;5.80;;;2.92;;
10007;SDS011;5043;41.766;26.204;2022-09-30T18:24:31;9.50;;;3.72;;
10007;SDS011;5043;41.766;26.204;2022-09-30T18:27:16;14.35;;;3.72;;
10007;SDS011;5043;41.766;26.204;2022-09-30T18:29:41;4.78;;;2.80;;
10007;SDS011;5043;41.766;26.204;2022-09-30T18:32:08;8.30;;;3.38;;
10007;SDS011;5043;41.766;26.204;2022-09-30T18:34:35;7.47;;;3.08;;
10007;SDS011;5043;41.766;26.204;2022-09-30T18:37:01;3.67;;;2.33;;
10007;SDS011;5043;41.766;26.204;2022-09-30T18:39:32;7.05;;;2.67;;
10007;SDS011;5043;41.766;26.204;2022-09-30T18:41:58;5.30;;;2.67;;
10007;SDS011;5043;41.766;26.204;2022-09-30T18:44:24;4.38;;;2.53;;
10007;SDS011;5043;41.766;26.204;2022-09-30T18:46:52;8.20;;;3.17;;
10007;SDS011;5043;41.766;26.204;2022-09-30T18:49:19;7.28;;;2.90;;
10007;SDS011;5043;41.766;26.204;2022-09-30T18:51:47;6.95;;;2.83;;